Time;durP1;ratioP1;P1;durP2;ratioP2;P2;SDS_P1;SDS_P2;PMS_P1;PMS_P2;Temp;Humidity;BMP_temperature;BMP_pressure;BME280_temperature;BME280_humidity;BME280_pressure;Samples;Min_cycle;Max_cycle;Signal;HPM_P1;HPM_P2
2022/09/29 00:02:19;;;;;;;4.22;1.58;;;;;;;;;;5104559;28;20088;-62
2022/09/29 00:04:45;;;;;;;4.07;1.45;;;;;;;;;;5107823;28;20110;-67
2022/09/29 00:07:11;;;;;;;5.30;1.50;;;;;;;;;;5108439;27;20067;-69
2022/09/29 00:09:37;;;;;;;3.13;1.00;;;;;;;;;;5108211;28;20044;-62
2022/09/29 00:12:03;;;;;;;3.90;1.08;;;;;;;;;;5104838;28;20050;-63
2022/09/29 00:14:29;;;;;;;2.17;1.15;;;;;;;;;;5104051;28;20063;-69
2022/09/29 00:16:56;;;;;;;1.90;0.90;;;;;;;;;;5097005;28;20128;-63
2022/09/29 00:19:22;;;;;;;1.80;1.08;;;;;;;;;;5101617;28;20035;-63
2022/09/29 00:21:48;;;;;;;1.75;0.80;;;;;;;;;;5104613;28;20101;-66
2022/09/29 00:24:14;;;;;;;7.35;1.27;;;;;;;;;;5100359;28;20050;-66
2022/09/29 00:26:40;;;;;;;4.53;0.93;;;;;;;;;;5102711;28;20142;-62
2022/09/29 00:29:06;;;;;;;2.28;0.88;;;;;;;;;;5106594;28;20404;-64
2022/09/29 00:31:33;;;;;;;1.85;0.90;;;;;;;;;;5105703;28;20074;-64
2022/09/29 00:33:58;;;;;;;3.13;1.23;;;;;;;;;;5103799;28;20040;-63
2022/09/29 00:36:28;;;;;;;4.80;1.00;;;;;;;;;;5103015;28;20081;-61
2022/09/29 00:38:55;;;;;;;2.58;0.95;;;;;;;;;;5101235;28;20050;-60
2022/09/29 00:41:26;;;;;;;3.38;1.10;;;;;;;;;;5111148;28;20130;-63
2022/09/29 00:44:02;;;;;;;3.33;1.30;;;;;;;;;;5111142;28;20058;-62
2022/09/29 00:46:35;;;;;;;1.88;0.90;;;;;;;;;;5105534;28;20536;-65
2022/09/29 00:49:07;;;;;;;6.30;1.27;;;;;;;;;;5106988;28;20089;-64
2022/09/29 00:51:35;;;;;;;2.08;0.90;;;;;;;;;;5104946;28;20052;-62
2022/09/29 00:54:02;;;;;;;2.05;1.00;;;;;;;;;;5108581;27;20139;-61
2022/09/29 00:56:29;;;;;;;3.75;0.80;;;;;;;;;;5106417;28;20056;-65
2022/09/29 00:59:02;;;;;;;1.70;1.00;;;;;;;;;;5108622;28;20420;-64
2022/09/29 01:01:30;;;;;;;2.13;0.85;;;;;;;;;;5106834;28;20047;-65
2022/09/29 01:04:04;;;;;;;2.55;0.98;;;;;;;;;;5110435;28;20122;-61
2022/09/29 01:06:38;;;;;;;3.93;1.00;;;;;;;;;;5108983;28;20044;-63
2022/09/29 01:09:10;;;;;;;2.95;0.75;;;;;;;;;;5109142;28;20051;-65
2022/09/29 01:11:36;;;;;;;3.22;1.00;;;;;;;;;;5109271;28;20545;-64
2022/09/29 01:14:07;;;;;;;1.77;0.93;;;;;;;;;;5108701;28;20512;-64
2022/09/29 01:16:35;;;;;;;2.65;0.90;;;;;;;;;;5109943;28;20126;-61
2022/09/29 01:19:16;;;;;;;2.92;1.00;;;;;;;;;;5109821;28;20134;-65
2022/09/29 01:22:07;;;;;;;4.45;0.80;;;;;;;;;;5108027;28;20059;-60
2022/09/29 01:25:07;;;;;;;2.10;0.93;;;;;;;;;;5108556;28;20051;-63
2022/09/29 01:27:52;;;;;;;2.00;1.10;;;;;;;;;;5045506;28;20045;-63
2022/09/29 01:30:43;;;;;;;2.83;1.00;;;;;;;;;;5043788;28;20500;-63
2022/09/29 01:33:21;;;;;;;1.60;1.00;;;;;;;;;;5043055;28;20047;-61
2022/09/29 01:36:10;;;;;;;5.47;0.90;;;;;;;;;;5045756;28;20051;-61
2022/09/29 01:38:39;;;;;;;6.95;1.20;;;;;;;;;;5043385;28;20053;-61
2022/09/29 01:41:28;;;;;;;2.40;1.20;;;;;;;;;;5044678;28;20041;-65
2022/09/29 01:44:04;;;;;;;1.75;0.90;;;;;;;;;;5043836;28;20160;-64
2022/09/29 01:46:35;;;;;;;1.65;0.90;;;;;;;;;;5045730;28;20071;-65
2022/09/29 01:49:03;;;;;;;6.60;1.30;;;;;;;;;;5040439;28;20052;-65
2022/09/29 01:51:40;;;;;;;4.93;1.00;;;;;;;;;;5045471;28;20526;-64
2022/09/29 01:54:14;;;;;;;3.22;1.02;;;;;;;;;;5042753;28;20106;-64
2022/09/29 01:56:49;;;;;;;2.28;1.08;;;;;;;;;;5045973;28;20045;-60
2022/09/29 01:59:26;;;;;;;2.65;1.02;;;;;;;;;;5044738;28;20041;-62
2022/09/29 02:01:58;;;;;;;3.85;1.08;;;;;;;;;;5042305;28;20063;-63
2022/09/29 02:04:38;;;;;;;4.22;1.13;;;;;;;;;;5089807;28;20044;-63
2022/09/29 02:07:10;;;;;;;6.20;1.40;;;;;;;;;;5109524;28;20047;-60
2022/09/29 02:09:44;;;;;;;2.72;1.30;;;;;;;;;;5111778;28;20493;-63
2022/09/29 02:12:12;;;;;;;;;;;;;;;;;;5108872;28;20121;-61
2022/09/29 02:14:46;;;;;;;3.83;1.00;;;;;;;;;;5102169;28;19920;-60
2022/09/29 02:17:25;;;;;;;;;;;;;;;;;;5103517;28;20127;-65
2022/09/29 02:19:52;;;;;;;3.42;1.00;;;;;;;;;;5106505;28;19970;-60
2022/09/29 02:22:18;;;;;;;2.35;1.00;;;;;;;;;;5108951;28;20066;-60
2022/09/29 02:24:45;;;;;;;5.88;1.00;;;;;;;;;;5106888;28;20082;-64
2022/09/29 02:27:11;;;;;;;3.10;1.00;;;;;;;;;;5108047;28;20039;-60
2022/09/29 02:29:38;;;;;;;2.53;0.80;;;;;;;;;;5101172;28;20059;-61
2022/09/29 02:32:05;;;;;;;1.85;0.85;;;;;;;;;;5105760;28;20381;-63
2022/09/29 02:34:40;;;;;;;1.60;0.90;;;;;;;;;;5105148;28;20043;-63
2022/09/29 02:37:20;;;;;;;4.40;0.95;;;;;;;;;;5108164;28;20085;-62
2022/09/29 02:39:46;;;;;;;2.13;0.88;;;;;;;;;;5104566;28;20051;-64
2022/09/29 02:42:24;;;;;;;1.83;0.88;;;;;;;;;;5108570;28;20043;-65
2022/09/29 02:44:57;;;;;;;2.53;0.80;;;;;;;;;;5109689;28;20050;-60
2022/09/29 02:47:32;;;;;;;5.13;1.20;;;;;;;;;;5102611;28;20097;-65
2022/09/29 02:50:31;;;;;;;2.60;0.80;;;;;;;;;;5101550;28;20048;-66
2022/09/29 02:53:13;;;;;;;2.15;0.82;;;;;;;;;;5101682;28;20052;-67
2022/09/29 02:56:06;;;;;;;1.23;0.70;;;;;;;;;;5106312;28;20039;-61
2022/09/29 02:58:35;;;;;;;2.42;1.00;;;;;;;;;;5104938;28;20043;-61
2022/09/29 03:01:04;;;;;;;2.55;0.73;;;;;;;;;;5099788;28;20044;-64
2022/09/29 03:03:30;;;;;;;2.28;0.90;;;;;;;;;;5101699;28;20051;-63
2022/09/29 03:05:56;;;;;;;1.60;0.80;;;;;;;;;;5103473;28;20068;-62
2022/09/29 03:08:22;;;;;;;1.70;0.80;;;;;;;;;;5107541;28;20585;-62
2022/09/29 03:10:48;;;;;;;4.03;0.80;;;;;;;;;;5107855;28;20093;-62
2022/09/29 03:13:14;;;;;;;2.05;1.00;;;;;;;;;;5107341;28;20295;-63
2022/09/29 03:15:40;;;;;;;2.33;1.00;;;;;;;;;;5101893;28;20048;-63
2022/09/29 03:18:07;;;;;;;4.88;1.48;;;;;;;;;;5106590;28;20125;-63
2022/09/29 03:20:33;;;;;;;2.22;0.95;;;;;;;;;;5104940;28;20078;-63
2022/09/29 03:22:58;;;;;;;4.95;0.90;;;;;;;;;;5105971;28;20052;-69
2022/09/29 03:25:24;;;;;;;5.82;1.20;;;;;;;;;;5105693;28;20334;-62
2022/09/29 03:27:50;;;;;;;4.10;1.15;;;;;;;;;;5106656;28;20122;-61
2022/09/29 03:30:17;;;;;;;3.00;1.20;;;;;;;;;;5102913;28;20059;-63
2022/09/29 03:32:43;;;;;;;2.22;1.05;;;;;;;;;;5109781;28;20085;-63
2022/09/29 03:35:10;;;;;;;3.15;1.02;;;;;;;;;;5105981;28;20069;-65
2022/09/29 03:37:36;;;;;;;4.40;1.10;;;;;;;;;;5100405;28;20747;-66
2022/09/29 03:40:05;;;;;;;2.05;1.10;;;;;;;;;;5107165;28;20044;-66
2022/09/29 03:42:31;;;;;;;3.15;0.90;;;;;;;;;;5103431;28;20052;-62
2022/09/29 03:44:57;;;;;;;1.92;0.90;;;;;;;;;;5107770;28;20412;-61
2022/09/29 03:47:23;;;;;;;1.80;1.00;;;;;;;;;;5106060;28;20048;-62
2022/09/29 03:49:49;;;;;;;2.35;0.90;;;;;;;;;;5106646;28;20047;-61
2022/09/29 03:52:15;;;;;;;2.53;1.00;;;;;;;;;;5108320;28;20043;-61
2022/09/29 03:54:41;;;;;;;5.72;1.17;;;;;;;;;;5107614;28;20139;-68
2022/09/29 03:57:07;;;;;;;3.15;1.65;;;;;;;;;;5099945;28;20435;-61
2022/09/29 03:59:33;;;;;;;1.55;0.80;;;;;;;;;;5108068;28;20043;-71
2022/09/29 04:01:58;;;;;;;4.53;0.85;;;;;;;;;;5104024;28;20373;-63
2022/09/29 04:04:24;;;;;;;2.55;0.93;;;;;;;;;;5103733;28;20044;-62
2022/09/29 04:06:50;;;;;;;3.03;0.80;;;;;;;;;;5108624;28;20043;-68
2022/09/29 04:09:16;;;;;;;2.03;0.80;;;;;;;;;;5103939;28;20052;-63
2022/09/29 04:11:42;;;;;;;6.05;1.30;;;;;;;;;;5103618;28;20142;-68
2022/09/29 04:14:08;;;;;;;3.90;1.13;;;;;;;;;;5107463;28;20047;-65
2022/09/29 04:16:33;;;;;;;8.35;1.17;;;;;;;;;;5109304;28;20787;-67
2022/09/29 04:18:59;;;;;;;2.95;1.20;;;;;;;;;;5111685;28;20055;-61
2022/09/29 04:21:25;;;;;;;2.53;0.98;;;;;;;;;;5112440;28;20047;-65
2022/09/29 04:23:51;;;;;;;2.47;1.00;;;;;;;;;;5112068;27;20134;-61
2022/09/29 04:26:19;;;;;;;2.25;0.80;;;;;;;;;;5110702;28;20042;-67
2022/09/29 04:28:45;;;;;;;2.55;0.90;;;;;;;;;;5112537;28;20131;-61
2022/09/29 04:31:11;;;;;;;2.70;1.08;;;;;;;;;;5107636;27;20098;-63
2022/09/29 04:33:38;;;;;;;1.60;1.00;;;;;;;;;;5109599;28;20493;-62
2022/09/29 04:36:04;;;;;;;2.13;0.88;;;;;;;;;;5109665;28;20040;-61
2022/09/29 04:38:30;;;;;;;1.48;0.80;;;;;;;;;;5107574;28;20498;-62
2022/09/29 04:40:57;;;;;;;1.92;0.90;;;;;;;;;;5109641;28;20043;-64
2022/09/29 04:43:23;;;;;;;3.60;1.35;;;;;;;;;;5099875;28;20043;-63
2022/09/29 04:45:48;;;;;;;2.65;0.90;;;;;;;;;;5107009;28;20507;-62
2022/09/29 04:48:14;;;;;;;2.83;0.90;;;;;;;;;;5101949;27;20040;-63
2022/09/29 04:50:42;;;;;;;3.28;1.00;;;;;;;;;;5112363;28;20048;-61
2022/09/29 04:53:09;;;;;;;2.50;1.00;;;;;;;;;;5107717;28;20123;-74
2022/09/29 04:55:38;;;;;;;1.95;0.90;;;;;;;;;;5098874;27;20069;-62
2022/09/29 04:58:04;;;;;;;3.25;1.00;;;;;;;;;;5103385;28;20039;-60
2022/09/29 05:00:31;;;;;;;3.15;0.95;;;;;;;;;;5105827;28;20435;-69
2022/09/29 05:02:57;;;;;;;4.40;1.10;;;;;;;;;;5107201;27;20041;-61
2022/09/29 05:05:23;;;;;;;5.07;1.35;;;;;;;;;;5105667;28;20051;-62
2022/09/29 05:07:49;;;;;;;2.47;1.48;;;;;;;;;;5101433;28;20062;-63
2022/09/29 05:10:15;;;;;;;5.90;1.38;;;;;;;;;;5097304;27;20046;-62
2022/09/29 05:12:47;;;;;;;1.50;0.88;;;;;;;;;;5102979;28;20406;-67
2022/09/29 05:15:13;;;;;;;4.13;1.33;;;;;;;;;;5093505;28;21083;-68
2022/09/29 05:17:39;;;;;;;2.53;1.50;;;;;;;;;;5099956;27;20051;-62
2022/09/29 05:20:05;;;;;;;1.92;0.90;;;;;;;;;;5097125;27;20093;-62
2022/09/29 05:22:31;;;;;;;3.38;1.13;;;;;;;;;;5098479;28;20084;-68
2022/09/29 05:24:57;;;;;;;2.83;1.00;;;;;;;;;;5105109;28;20054;-63
2022/09/29 05:27:23;;;;;;;3.28;1.50;;;;;;;;;;5107746;28;20039;-63
2022/09/29 05:29:48;;;;;;;6.00;0.88;;;;;;;;;;5105288;28;20071;-63
2022/09/29 05:32:14;;;;;;;4.97;0.85;;;;;;;;;;5106911;28;20059;-63
2022/09/29 05:34:41;;;;;;;2.35;1.10;;;;;;;;;;5112740;28;20105;-62
2022/09/29 05:37:07;;;;;;;5.75;1.25;;;;;;;;;;5107237;28;20070;-63
2022/09/29 05:39:36;;;;;;;5.10;1.23;;;;;;;;;;5106295;28;20043;-66
2022/09/29 05:42:09;;;;;;;4.47;1.77;;;;;;;;;;5106179;28;20046;-64
2022/09/29 05:44:34;;;;;;;5.85;1.60;;;;;;;;;;5098309;28;20449;-62
2022/09/29 05:47:00;;;;;;;3.83;1.20;;;;;;;;;;5106169;28;20084;-64
2022/09/29 05:49:26;;;;;;;5.03;1.45;;;;;;;;;;5104824;28;20052;-63
2022/09/29 05:51:52;;;;;;;4.47;1.35;;;;;;;;;;5101119;28;20604;-66
2022/09/29 05:54:18;;;;;;;5.38;1.38;;;;;;;;;;5103533;28;20092;-67
2022/09/29 05:56:44;;;;;;;10.25;1.45;;;;;;;;;;5104946;28;20040;-62
2022/09/29 05:59:10;;;;;;;4.50;1.50;;;;;;;;;;5105825;28;20099;-62
2022/09/29 06:01:35;;;;;;;7.15;1.60;;;;;;;;;;5106065;28;20441;-67
2022/09/29 06:04:02;;;;;;;9.25;1.58;;;;;;;;;;5103683;28;20462;-67
2022/09/29 06:06:28;;;;;;;9.23;1.40;;;;;;;;;;5102176;28;20055;-62
2022/09/29 06:08:57;;;;;;;10.85;1.85;;;;;;;;;;5106114;28;20113;-72
2022/09/29 06:11:30;;;;;;;11.70;2.20;;;;;;;;;;5108856;28;20039;-64
2022/09/29 06:13:56;;;;;;;8.77;1.80;;;;;;;;;;5104431;28;20089;-68
2022/09/29 06:16:25;;;;;;;7.63;2.45;;;;;;;;;;5101783;28;20070;-64
2022/09/29 06:18:51;;;;;;;11.55;2.70;;;;;;;;;;5099532;28;20044;-66
2022/09/29 06:21:20;;;;;;;10.00;2.70;;;;;;;;;;5107165;28;20043;-67
2022/09/29 06:23:47;;;;;;;22.35;3.00;;;;;;;;;;5103282;28;20062;-65
2022/09/29 06:26:15;;;;;;;8.70;2.80;;;;;;;;;;5106284;28;20051;-63
2022/09/29 06:28:41;;;;;;;10.35;2.63;;;;;;;;;;5106714;28;20447;-68
2022/09/29 06:31:13;;;;;;;9.68;2.53;;;;;;;;;;5107108;28;20040;-63
2022/09/29 06:33:39;;;;;;;19.08;2.67;;;;;;;;;;5109200;28;20481;-59
2022/09/29 06:39:08;;;;;;;16.42;3.33;;;;;;;;;;5091464;28;20040;-75
2022/09/29 06:41:34;;;;;;;11.60;3.08;;;;;;;;;;5102009;28;20093;-64
2022/09/29 06:44:00;;;;;;;11.18;3.00;;;;;;;;;;5107531;27;20036;-72
2022/09/29 06:46:26;;;;;;;17.15;3.53;;;;;;;;;;5101062;28;20040;-67
2022/09/29 06:48:55;;;;;;;7.38;3.33;;;;;;;;;;5103341;28;20040;-70
2022/09/29 06:51:23;;;;;;;12.52;2.60;;;;;;;;;;5104951;28;20047;-72
2022/09/29 06:53:49;;;;;;;7.85;2.90;;;;;;;;;;5102619;28;20140;-68
2022/09/29 06:56:17;;;;;;;6.68;2.78;;;;;;;;;;5098162;28;20497;-63
2022/09/29 06:58:43;;;;;;;8.18;2.70;;;;;;;;;;5107864;28;20131;-68
2022/09/29 07:01:10;;;;;;;8.90;2.10;;;;;;;;;;5103969;28;20040;-63
2022/09/29 07:03:36;;;;;;;7.25;2.38;;;;;;;;;;5102885;28;20332;-63
2022/09/29 07:06:04;;;;;;;6.40;2.88;;;;;;;;;;5099439;28;20545;-64
2022/09/29 07:08:30;;;;;;;8.95;3.22;;;;;;;;;;5096716;28;20046;-62
2022/09/29 07:10:57;;;;;;;11.90;4.05;;;;;;;;;;5100960;28;20122;-63
2022/09/29 07:13:25;;;;;;;11.80;3.58;;;;;;;;;;5099331;28;20039;-67
2022/09/29 07:15:52;;;;;;;7.45;2.70;;;;;;;;;;5100755;28;20396;-62
2022/09/29 07:18:18;;;;;;;5.55;2.00;;;;;;;;;;5109366;28;20088;-63
2022/09/29 07:20:44;;;;;;;6.15;1.98;;;;;;;;;;5109302;28;20396;-63
2022/09/29 07:23:10;;;;;;;9.82;1.98;;;;;;;;;;5111597;28;20056;-65
2022/09/29 07:25:36;;;;;;;6.47;1.67;;;;;;;;;;5108100;28;20069;-65
2022/09/29 07:28:02;;;;;;;3.67;1.83;;;;;;;;;;5108747;28;20048;-69
2022/09/29 07:30:28;;;;;;;4.47;1.77;;;;;;;;;;5109427;28;20126;-63
2022/09/29 07:32:56;;;;;;;6.65;1.35;;;;;;;;;;5098905;28;20139;-64
2022/09/29 07:35:22;;;;;;;5.00;1.80;;;;;;;;;;5108170;28;20040;-71
2022/09/29 07:37:53;;;;;;;4.93;1.38;;;;;;;;;;5107676;28;20799;-65
2022/09/29 07:40:21;;;;;;;9.55;3.40;;;;;;;;;;5105692;28;20448;-63
2022/09/29 07:42:47;;;;;;;6.07;1.30;;;;;;;;;;5106445;28;20048;-66
2022/09/29 07:45:15;;;;;;;2.58;1.33;;;;;;;;;;5106356;28;20435;-74
2022/09/29 07:47:40;;;;;;;5.28;1.58;;;;;;;;;;5107094;28;20130;-63
2022/09/29 07:50:06;;;;;;;7.82;1.55;;;;;;;;;;5099879;28;20131;-62
2022/09/29 07:52:32;;;;;;;6.55;1.42;;;;;;;;;;5107647;28;20055;-62
2022/09/29 07:54:58;;;;;;;7.22;1.52;;;;;;;;;;5109848;28;20051;-68
2022/09/29 07:57:24;;;;;;;9.52;2.42;;;;;;;;;;5110940;28;20051;-72
2022/09/29 07:59:51;;;;;;;8.57;1.42;;;;;;;;;;5110805;28;20417;-64
2022/09/29 08:02:17;;;;;;;5.43;1.95;;;;;;;;;;5112403;28;20051;-68
2022/09/29 08:04:43;;;;;;;5.25;1.40;;;;;;;;;;5113141;28;20043;-63
2022/09/29 08:07:09;;;;;;;8.43;1.85;;;;;;;;;;5114167;28;20099;-65
2022/09/29 08:09:35;;;;;;;7.28;1.48;;;;;;;;;;5113512;28;20400;-65
2022/09/29 08:12:01;;;;;;;5.97;1.40;;;;;;;;;;5112879;28;20035;-63
2022/09/29 08:14:27;;;;;;;7.82;1.50;;;;;;;;;;5091969;28;20154;-62
2022/09/29 08:16:53;;;;;;;3.65;1.58;;;;;;;;;;5104079;28;20079;-68
2022/09/29 08:19:19;;;;;;;8.65;1.75;;;;;;;;;;5112297;28;20044;-64
2022/09/29 08:21:48;;;;;;;7.05;1.35;;;;;;;;;;5112106;28;20047;-65
2022/09/29 08:24:16;;;;;;;4.78;1.40;;;;;;;;;;5110937;28;20092;-62
2022/09/29 08:26:42;;;;;;;9.85;1.50;;;;;;;;;;5107489;28;20055;-65
2022/09/29 08:29:09;;;;;;;3.72;1.48;;;;;;;;;;5108924;28;20047;-74
2022/09/29 08:31:36;;;;;;;4.88;1.45;;;;;;;;;;5108725;28;20138;-73
2022/09/29 08:34:02;;;;;;;5.00;1.40;;;;;;;;;;5108557;28;20047;-63
2022/09/29 08:36:28;;;;;;;4.13;1.20;;;;;;;;;;5106755;28;20153;-68
2022/09/29 08:38:56;;;;;;;4.05;1.00;;;;;;;;;;5108180;28;20494;-69
2022/09/29 08:41:33;;;;;;;4.00;0.98;;;;;;;;;;5108191;28;20040;-71
2022/09/29 08:44:21;;;;;;;4.22;1.10;;;;;;;;;;5106220;28;20130;-70
2022/09/29 08:46:48;;;;;;;3.95;1.38;;;;;;;;;;5095036;28;20082;-70
2022/09/29 08:49:31;;;;;;;5.60;1.42;;;;;;;;;;5104733;28;20040;-65
2022/09/29 08:52:04;;;;;;;4.10;1.33;;;;;;;;;;5103681;28;21176;-72
2022/09/29 08:54:33;;;;;;;3.90;1.10;;;;;;;;;;5108546;28;20123;-72
2022/09/29 08:57:00;;;;;;;4.32;1.10;;;;;;;;;;5109822;28;20074;-69
2022/09/29 08:59:28;;;;;;;6.47;1.10;;;;;;;;;;5112700;28;20054;-65
2022/09/29 09:02:12;;;;;;;4.50;1.38;;;;;;;;;;5116031;28;20048;-65
2022/09/29 09:04:57;;;;;;;1.73;1.00;;;;;;;;;;5117275;28;20511;-69
2022/09/29 09:07:29;;;;;;;3.38;1.02;;;;;;;;;;5119156;28;20550;-65
2022/09/29 09:10:12;;;;;;;3.72;1.02;;;;;;;;;;5117332;28;20047;-65
2022/09/29 09:12:46;;;;;;;5.53;1.13;;;;;;;;;;5114430;28;20488;-73
2022/09/29 09:15:35;;;;;;;4.95;1.00;;;;;;;;;;5113615;28;20043;-66
2022/09/29 09:18:07;;;;;;;12.63;0.90;;;;;;;;;;5094187;28;20040;-65
2022/09/29 09:20:35;;;;;;;4.18;1.00;;;;;;;;;;5109421;28;20045;-64
2022/09/29 09:23:13;;;;;;;6.32;1.08;;;;;;;;;;5113366;28;20047;-64
2022/09/29 09:25:46;;;;;;;2.25;0.73;;;;;;;;;;5113118;28;20051;-66
2022/09/29 09:28:15;;;;;;;6.72;0.90;;;;;;;;;;5112903;28;20036;-79
2022/09/29 09:30:49;;;;;;;6.82;1.00;;;;;;;;;;5111774;28;20240;-65
2022/09/29 09:33:29;;;;;;;5.50;0.85;;;;;;;;;;5098913;28;20378;-68
2022/09/29 09:36:04;;;;;;;1.52;0.75;;;;;;;;;;5102433;28;20576;-74
2022/09/29 09:38:55;;;;;;;3.38;0.70;;;;;;;;;;5109112;28;20043;-65
2022/09/29 09:41:23;;;;;;;6.93;1.10;;;;;;;;;;5089314;28;20043;-69
2022/09/29 09:43:55;;;;;;;4.55;0.90;;;;;;;;;;5112442;28;20039;-67
2022/09/29 09:46:39;;;;;;;7.05;0.93;;;;;;;;;;5112416;28;20120;-68
2022/09/29 09:49:36;;;;;;;1.40;0.88;;;;;;;;;;5106194;28;20405;-76
2022/09/29 09:52:10;;;;;;;1.52;0.90;;;;;;;;;;5113159;28;20059;-66
2022/09/29 09:54:46;;;;;;;3.20;0.90;;;;;;;;;;5112170;28;20098;-64
2022/09/29 09:57:29;;;;;;;4.00;1.00;;;;;;;;;;5113596;28;20488;-71
2022/09/29 10:00:12;;;;;;;3.15;0.90;;;;;;;;;;5112461;28;20051;-67
2022/09/29 10:02:49;;;;;;;2.00;0.90;;;;;;;;;;5110647;28;20044;-74
2022/09/29 10:05:38;;;;;;;1.30;0.90;;;;;;;;;;5113299;28;20437;-64
2022/09/29 10:08:09;;;;;;;6.05;0.90;;;;;;;;;;5111526;28;20056;-78
2022/09/29 10:10:35;;;;;;;2.20;1.10;;;;;;;;;;5110829;28;20563;-66
2022/09/29 10:13:09;;;;;;;13.82;1.65;;;;;;;;;;5109723;28;20131;-72
2022/09/29 10:15:51;;;;;;;2.42;0.93;;;;;;;;;;5098955;28;20482;-70
2022/09/29 10:18:21;;;;;;;1.65;0.80;;;;;;;;;;5099822;28;20123;-65
2022/09/29 10:20:48;;;;;;;2.95;0.90;;;;;;;;;;5110033;28;20129;-65
2022/09/29 10:23:25;;;;;;;2.45;0.95;;;;;;;;;;5102984;28;20079;-65
2022/09/29 10:26:07;;;;;;;4.55;1.00;;;;;;;;;;5110807;28;20048;-70
2022/09/29 10:28:39;;;;;;;1.75;0.80;;;;;;;;;;5103861;28;20048;-68
2022/09/29 10:31:23;;;;;;;2.15;0.80;;;;;;;;;;5106729;28;20558;-67
2022/09/29 10:34:00;;;;;;;3.60;0.98;;;;;;;;;;5110099;28;20043;-65
2022/09/29 10:36:31;;;;;;;4.55;0.93;;;;;;;;;;5109906;28;20046;-64
2022/09/29 10:38:57;;;;;;;4.78;1.10;;;;;;;;;;5109372;28;20070;-69
2022/09/29 10:41:24;;;;;;;1.83;0.75;;;;;;;;;;5108571;28;20106;-67
2022/09/29 10:43:53;;;;;;;4.53;1.02;;;;;;;;;;5108890;28;20051;-64
2022/09/29 10:46:33;;;;;;;2.17;0.80;;;;;;;;;;5107116;28;20052;-67
2022/09/29 10:49:17;;;;;;;1.73;0.80;;;;;;;;;;5096307;28;20334;-64
2022/09/29 10:52:04;;;;;;;1.70;0.90;;;;;;;;;;5111039;28;20140;-75
2022/09/29 10:54:38;;;;;;;2.78;0.82;;;;;;;;;;5106965;28;20047;-68
2022/09/29 10:57:14;;;;;;;3.30;0.93;;;;;;;;;;5109273;28;20047;-68
2022/09/29 10:59:52;;;;;;;5.95;0.80;;;;;;;;;;5109499;28;20040;-71
2022/09/29 11:02:23;;;;;;;1.98;0.60;;;;;;;;;;5104203;28;20096;-67
2022/09/29 11:04:51;;;;;;;1.65;0.77;;;;;;;;;;5107962;28;20051;-67
2022/09/29 11:07:17;;;;;;;2.80;0.75;;;;;;;;;;5109832;28;20035;-70
2022/09/29 11:09:43;;;;;;;2.75;0.85;;;;;;;;;;5099264;28;20044;-63
2022/09/29 11:12:30;;;;;;;2.90;0.90;;;;;;;;;;5105436;28;20104;-63
2022/09/29 11:14:57;;;;;;;5.45;0.75;;;;;;;;;;5109263;28;20185;-72
2022/09/29 11:17:30;;;;;;;4.43;0.90;;;;;;;;;;5109070;28;20044;-74
2022/09/29 11:19:59;;;;;;;3.42;0.90;;;;;;;;;;5108720;28;20048;-73
2022/09/29 11:22:49;;;;;;;0.90;0.70;;;;;;;;;;5108642;28;20059;-72
2022/09/29 11:25:29;;;;;;;2.85;0.90;;;;;;;;;;5079550;28;20138;-75
2022/09/29 11:28:19;;;;;;;2.00;1.00;;;;;;;;;;5113975;28;20107;-67
2022/09/29 11:31:14;;;;;;;4.20;0.95;;;;;;;;;;5112190;28;20197;-67
2022/09/29 11:33:43;;;;;;;4.38;1.33;;;;;;;;;;5110881;28;20044;-65
2022/09/29 11:36:49;;;;;;;1.65;0.70;;;;;;;;;;5100780;28;20047;-65
2022/09/29 11:39:30;;;;;;;0.93;0.63;;;;;;;;;;5109249;28;20052;-77
2022/09/29 11:42:23;;;;;;;2.50;0.90;;;;;;;;;;5108151;28;20047;-66
2022/09/29 11:45:02;;;;;;;3.40;1.05;;;;;;;;;;5105010;28;20048;-69
2022/09/29 11:47:48;;;;;;;3.78;0.65;;;;;;;;;;5099512;28;20148;-65
2022/09/29 11:50:24;;;;;;;6.13;1.60;;;;;;;;;;5108160;28;20579;-66
2022/09/29 11:52:59;;;;;;;1.20;1.00;;;;;;;;;;5107542;28;20454;-73
2022/09/29 11:55:51;;;;;;;1.88;0.93;;;;;;;;;;5105446;28;20043;-65
2022/09/29 11:58:45;;;;;;;4.28;1.08;;;;;;;;;;5099644;28;20043;-71
2022/09/29 12:01:33;;;;;;;2.47;1.00;;;;;;;;;;5097362;28;20055;-73
2022/09/29 12:04:25;;;;;;;3.65;0.90;;;;;;;;;;5106024;28;20043;-67
2022/09/29 12:07:17;;;;;;;4.38;0.95;;;;;;;;;;5107400;28;20400;-64
2022/09/29 12:09:58;;;;;;;4.72;1.00;;;;;;;;;;5095878;28;20108;-72
2022/09/29 12:12:39;;;;;;;3.72;0.85;;;;;;;;;;5104491;28;20051;-67
2022/09/29 12:15:27;;;;;;;2.35;1.05;;;;;;;;;;5098899;28;20048;-72
2022/09/29 12:17:59;;;;;;;3.53;1.05;;;;;;;;;;5102851;28;20039;-66
2022/09/29 12:20:36;;;;;;;4.05;1.35;;;;;;;;;;5108508;28;20306;-65
2022/09/29 12:23:10;;;;;;;1.38;0.77;;;;;;;;;;5108197;28;20051;-65
2022/09/29 12:25:42;;;;;;;4.77;0.90;;;;;;;;;;5096387;28;20044;-66
2022/09/29 12:28:19;;;;;;;1.52;0.93;;;;;;;;;;5100526;28;20040;-67
2022/09/29 12:31:06;;;;;;;7.70;1.25;;;;;;;;;;5111361;28;20040;-69
2022/09/29 12:33:41;;;;;;;4.13;1.55;;;;;;;;;;5108963;28;20493;-65
2022/09/29 12:36:44;;;;;;;4.68;1.02;;;;;;;;;;5112776;27;20403;-66
2022/09/29 12:39:32;;;;;;;3.70;1.40;;;;;;;;;;5115632;28;20464;-73
2022/09/29 12:42:23;;;;;;;2.60;0.85;;;;;;;;;;5112463;28;20055;-69
2022/09/29 12:45:05;;;;;;;1.67;0.88;;;;;;;;;;5112409;28;20046;-66
2022/09/29 12:47:49;;;;;;;3.83;1.10;;;;;;;;;;5105222;28;20050;-64
2022/09/29 12:50:25;;;;;;;11.30;1.37;;;;;;;;;;5109285;28;20155;-64
2022/09/29 12:52:56;;;;;;;6.18;1.42;;;;;;;;;;5112060;28;20055;-63
2022/09/29 12:55:43;;;;;;;4.20;1.10;;;;;;;;;;5112175;28;20052;-69
2022/09/29 12:58:22;;;;;;;3.45;1.10;;;;;;;;;;5112962;28;20044;-68
2022/09/29 13:00:55;;;;;;;3.17;0.98;;;;;;;;;;5113094;28;20130;-65
2022/09/29 13:03:30;;;;;;;3.40;0.80;;;;;;;;;;5111785;28;20492;-75
2022/09/29 13:06:30;;;;;;;2.38;0.90;;;;;;;;;;5112587;28;20047;-65
2022/09/29 13:09:11;;;;;;;4.30;1.00;;;;;;;;;;5112016;28;20047;-65
2022/09/29 13:11:51;;;;;;;5.60;1.50;;;;;;;;;;5111994;28;20052;-65
2022/09/29 13:14:46;;;;;;;4.65;1.58;;;;;;;;;;5110090;28;20641;-64
2022/09/29 13:17:56;;;;;;;4.10;1.23;;;;;;;;;;5076957;28;20044;-68
2022/09/29 13:20:52;;;;;;;7.45;1.20;;;;;;;;;;5042384;28;20450;-67
2022/09/29 13:23:37;;;;;;;5.57;1.27;;;;;;;;;;5048603;28;20132;-65
2022/09/29 13:26:12;;;;;;;1.70;0.80;;;;;;;;;;5048927;28;20041;-65
2022/09/29 13:28:50;;;;;;;2.00;0.93;;;;;;;;;;5050796;28;20123;-70
2022/09/29 13:31:24;;;;;;;6.15;1.10;;;;;;;;;;5050725;28;20045;-66
2022/09/29 13:33:54;;;;;;;1.15;0.70;;;;;;;;;;5049567;28;20045;-64
2022/09/29 13:36:34;;;;;;;4.03;0.80;;;;;;;;;;5050004;28;20073;-67
2022/09/29 13:39:03;;;;;;;3.90;1.20;;;;;;;;;;5050114;28;20049;-68
2022/09/29 13:41:29;;;;;;;5.18;0.75;;;;;;;;;;5049624;28;20537;-67
2022/09/29 13:43:55;;;;;;;3.55;1.10;;;;;;;;;;5049032;28;20047;-68
2022/09/29 13:46:42;;;;;;;5.47;1.45;;;;;;;;;;5048525;28;20123;-66
2022/09/29 13:49:10;;;;;;;5.05;1.23;;;;;;;;;;5044412;28;20037;-66
2022/09/29 13:51:50;;;;;;;3.58;0.95;;;;;;;;;;5048809;28;20041;-72
2022/09/29 13:54:27;;;;;;;2.05;0.95;;;;;;;;;;5037961;28;20037;-68
2022/09/29 13:57:05;;;;;;;6.72;0.90;;;;;;;;;;5092727;28;20107;-70
2022/09/29 13:59:33;;;;;;;7.53;1.27;;;;;;;;;;5112987;28;20489;-66
2022/09/29 14:01:59;;;;;;;7.18;1.20;;;;;;;;;;5113768;27;20327;-65
2022/09/29 14:04:50;;;;;;;9.68;1.25;;;;;;;;;;5113754;28;20554;-64
2022/09/29 14:07:45;;;;;;;13.13;1.05;;;;;;;;;;5112982;28;20087;-67
2022/09/29 14:10:17;;;;;;;;;;;;;;;;;;5110772;28;20451;-63
2022/09/29 14:12:46;;;;;;;3.60;0.90;;;;;;;;;;5109657;28;19919;-63
2022/09/29 14:15:17;;;;;;;3.72;0.90;;;;;;;;;;5118032;27;20047;-65
2022/09/29 14:17:50;;;;;;;6.70;1.10;;;;;;;;;;5109965;27;20125;-63
2022/09/29 14:20:21;;;;;;;4.80;0.90;;;;;;;;;;5110252;28;20511;-65
2022/09/29 14:23:31;;;;;;;8.77;1.10;;;;;;;;;;5111609;28;20609;-65
2022/09/29 14:25:58;;;;;;;2.83;0.93;;;;;;;;;;5094413;28;20504;-67
2022/09/29 14:28:33;;;;;;;2.78;0.93;;;;;;;;;;5097488;28;20088;-66
2022/09/29 14:31:01;;;;;;;4.85;0.90;;;;;;;;;;5109497;28;20327;-70
2022/09/29 14:33:39;;;;;;;1.50;0.65;;;;;;;;;;5107200;28;20052;-71
2022/09/29 14:36:19;;;;;;;3.13;0.90;;;;;;;;;;5109207;28;20067;-65
2022/09/29 14:38:49;;;;;;;1.67;0.70;;;;;;;;;;5107925;28;20047;-62
2022/09/29 14:41:33;;;;;;;1.50;0.60;;;;;;;;;;5103123;28;20130;-65
2022/09/29 14:44:18;;;;;;;3.03;0.50;;;;;;;;;;5102343;27;20056;-63
2022/09/29 14:53:24;;;;;;;2.05;0.90;;;;;;;;;;5107940;28;20188;-66
2022/09/29 14:56:07;;;;;;;3.45;0.77;;;;;;;;;;5109274;28;20040;-71
2022/09/29 14:58:42;;;;;;;5.35;1.00;;;;;;;;;;5098217;28;20119;-67
2022/09/29 15:01:29;;;;;;;4.88;1.02;;;;;;;;;;5124828;27;20131;-64
2022/09/29 15:04:15;;;;;;;3.22;0.80;;;;;;;;;;5105798;28;20043;-67
2022/09/29 15:06:51;;;;;;;2.17;0.85;;;;;;;;;;5109445;28;20502;-66
2022/09/29 15:09:23;;;;;;;2.60;0.77;;;;;;;;;;5103488;28;20035;-64
2022/09/29 15:11:53;;;;;;;3.28;1.10;;;;;;;;;;5105279;28;20058;-70
2022/09/29 15:14:19;;;;;;;3.40;1.00;;;;;;;;;;5105453;28;20043;-65
2022/09/29 15:17:04;;;;;;;4.80;0.90;;;;;;;;;;5105251;28;20048;-69
2022/09/29 15:19:54;;;;;;;3.00;0.80;;;;;;;;;;5097598;28;20130;-64
2022/09/29 15:22:43;;;;;;;8.85;0.88;;;;;;;;;;5101371;28;20048;-64
2022/09/29 15:25:36;;;;;;;3.10;1.00;;;;;;;;;;5105465;28;20067;-64
2022/09/29 15:28:17;;;;;;;;;;;;;;;;;;5092924;28;20050;-64